sensor_id;sensor_type;location;lat;lon;timestamp;temperature;humidity
33815;DHT22;20121;51.910;8.406;2023-04-25T00:01:17;6.60;99.90
33815;DHT22;20121;51.910;8.406;2023-04-25T00:03:44;6.60;99.90
33815;DHT22;20121;51.910;8.406;2023-04-25T00:06:11;6.70;99.90
33815;DHT22;20121;51.910;8.406;2023-04-25T00:11:02;6.80;99.90
33815;DHT22;20121;51.910;8.406;2023-04-25T00:13:28;6.80;99.90
33815;DHT22;20121;51.910;8.406;2023-04-25T00:15:54;6.70;99.90
33815;DHT22;20121;51.910;8.406;2023-04-25T00:18:20;6.50;99.90
33815;DHT22;20121;51.910;8.406;2023-04-25T00:20:45;6.80;99.90
33815;DHT22;20121;51.910;8.406;2023-04-25T00:23:16;6.70;99.90
33815;DHT22;20121;51.910;8.406;2023-04-25T00:25:48;7.10;99.90
33815;DHT22;20121;51.910;8.406;2023-04-25T00:28:14;6.70;99.90
33815;DHT22;20121;51.910;8.406;2023-04-25T00:30:40;6.70;99.90
33815;DHT22;20121;51.910;8.406;2023-04-25T00:33:06;6.00;99.90
33815;DHT22;20121;51.910;8.406;2023-04-25T00:35:32;6.80;99.90
33815;DHT22;20121;51.910;8.406;2023-04-25T00:37:58;6.80;99.90
33815;DHT22;20121;51.910;8.406;2023-04-25T00:40:23;6.30;99.90
33815;DHT22;20121;51.910;8.406;2023-04-25T00:42:50;6.60;99.90
33815;DHT22;20121;51.910;8.406;2023-04-25T00:45:17;6.60;99.90
33815;DHT22;20121;51.910;8.406;2023-04-25T00:47:43;6.50;99.90
33815;DHT22;20121;51.910;8.406;2023-04-25T00:50:09;6.50;99.90
33815;DHT22;20121;51.910;8.406;2023-04-25T00:52:41;6.80;99.90
33815;DHT22;20121;51.910;8.406;2023-04-25T00:55:08;7.30;99.90
33815;DHT22;20121;51.910;8.406;2023-04-25T00:57:34;6.80;99.90
33815;DHT22;20121;51.910;8.406;2023-04-25T01:00:01;6.70;99.90
33815;DHT22;20121;51.910;8.406;2023-04-25T01:02:27;6.80;99.90
33815;DHT22;20121;51.910;8.406;2023-04-25T01:04:52;6.60;99.90
33815;DHT22;20121;51.910;8.406;2023-04-25T01:07:18;6.60;99.90
33815;DHT22;20121;51.910;8.406;2023-04-25T01:09:44;6.70;99.90
33815;DHT22;20121;51.910;8.406;2023-04-25T01:12:10;6.60;99.90
33815;DHT22;20121;51.910;8.406;2023-04-25T01:14:36;6.80;99.90
33815;DHT22;20121;51.910;8.406;2023-04-25T01:17:02;6.60;99.90
33815;DHT22;20121;51.910;8.406;2023-04-25T01:19:27;6.60;99.90
33815;DHT22;20121;51.910;8.406;2023-04-25T01:21:54;6.40;99.90
33815;DHT22;20121;51.910;8.406;2023-04-25T01:24:19;6.60;99.90
33815;DHT22;20121;51.910;8.406;2023-04-25T01:26:45;6.60;99.90
33815;DHT22;20121;51.910;8.406;2023-04-25T01:29:19;6.60;99.90
33815;DHT22;20121;51.910;8.406;2023-04-25T01:31:46;6.60;99.90
33815;DHT22;20121;51.910;8.406;2023-04-25T01:34:12;6.60;99.90
33815;DHT22;20121;51.910;8.406;2023-04-25T01:36:38;6.50;99.90
33815;DHT22;20121;51.910;8.406;2023-04-25T01:39:04;6.40;99.90
33815;DHT22;20121;51.910;8.406;2023-04-25T01:41:30;6.50;99.90
33815;DHT22;20121;51.910;8.406;2023-04-25T01:43:56;6.50;99.90
33815;DHT22;20121;51.910;8.406;2023-04-25T01:46:22;6.50;99.90
33815;DHT22;20121;51.910;8.406;2023-04-25T01:48:48;6.50;99.90
33815;DHT22;20121;51.910;8.406;2023-04-25T01:51:13;6.50;99.90
33815;DHT22;20121;51.910;8.406;2023-04-25T01:53:39;6.40;99.90
33815;DHT22;20121;51.910;8.406;2023-04-25T01:56:05;6.70;99.90
33815;DHT22;20121;51.910;8.406;2023-04-25T01:58:31;6.60;99.90
33815;DHT22;20121;51.910;8.406;2023-04-25T02:00:57;7.90;99.90
33815;DHT22;20121;51.910;8.406;2023-04-25T02:05:48;6.40;99.90
33815;DHT22;20121;51.910;8.406;2023-04-25T02:08:16;6.40;99.90
33815;DHT22;20121;51.910;8.406;2023-04-25T02:10:42;6.40;99.90
33815;DHT22;20121;51.910;8.406;2023-04-25T02:13:08;5.70;99.90
33815;DHT22;20121;51.910;8.406;2023-04-25T02:18:00;6.50;99.90
33815;DHT22;20121;51.910;8.406;2023-04-25T02:20:26;6.50;99.90
33815;DHT22;20121;51.910;8.406;2023-04-25T02:22:52;6.30;99.90
33815;DHT22;20121;51.910;8.406;2023-04-25T02:25:19;6.30;99.90
33815;DHT22;20121;51.910;8.406;2023-04-25T02:27:46;6.40;99.90
33815;DHT22;20121;51.910;8.406;2023-04-25T02:30:12;6.40;99.90
33815;DHT22;20121;51.910;8.406;2023-04-25T02:32:39;6.60;99.90
33815;DHT22;20121;51.910;8.406;2023-04-25T02:35:04;6.40;99.90
33815;DHT22;20121;51.910;8.406;2023-04-25T02:37:35;6.50;99.90
33815;DHT22;20121;51.910;8.406;2023-04-25T02:40:01;6.40;99.90
33815;DHT22;20121;51.910;8.406;2023-04-25T02:42:28;6.40;99.90
33815;DHT22;20121;51.910;8.406;2023-04-25T02:44:53;6.40;99.90
33815;DHT22;20121;51.910;8.406;2023-04-25T02:47:19;6.40;99.90
33815;DHT22;20121;51.910;8.406;2023-04-25T02:49:45;6.30;99.90
33815;DHT22;20121;51.910;8.406;2023-04-25T02:52:11;6.40;99.90
33815;DHT22;20121;51.910;8.406;2023-04-25T02:54:38;6.40;99.90
33815;DHT22;20121;51.910;8.406;2023-04-25T02:57:03;6.30;99.90
33815;DHT22;20121;51.910;8.406;2023-04-25T02:59:29;6.30;99.90
33815;DHT22;20121;51.910;8.406;2023-04-25T03:01:55;6.40;99.90
33815;DHT22;20121;51.910;8.406;2023-04-25T03:04:21;6.40;99.90
33815;DHT22;20121;51.910;8.406;2023-04-25T03:06:49;6.40;99.90
33815;DHT22;20121;51.910;8.406;2023-04-25T03:09:15;6.40;99.90
33815;DHT22;20121;51.910;8.406;2023-04-25T03:11:41;6.40;99.90
33815;DHT22;20121;51.910;8.406;2023-04-25T03:14:07;6.40;99.90
33815;DHT22;20121;51.910;8.406;2023-04-25T03:16:33;6.50;99.90
33815;DHT22;20121;51.910;8.406;2023-04-25T03:18:59;6.40;99.90
33815;DHT22;20121;51.910;8.406;2023-04-25T03:21:24;6.40;99.90
33815;DHT22;20121;51.910;8.406;2023-04-25T03:23:50;6.40;99.90
33815;DHT22;20121;51.910;8.406;2023-04-25T03:26:16;6.40;99.90
33815;DHT22;20121;51.910;8.406;2023-04-25T03:28:41;6.40;99.90
33815;DHT22;20121;51.910;8.406;2023-04-25T03:31:07;6.40;99.90
33815;DHT22;20121;51.910;8.406;2023-04-25T03:33:33;6.40;99.90
33815;DHT22;20121;51.910;8.406;2023-04-25T03:35:58;6.10;99.90
33815;DHT22;20121;51.910;8.406;2023-04-25T03:38:24;6.40;99.90
33815;DHT22;20121;51.910;8.406;2023-04-25T03:40:51;6.30;99.90
33815;DHT22;20121;51.910;8.406;2023-04-25T03:43:17;6.30;99.90
33815;DHT22;20121;51.910;8.406;2023-04-25T03:45:42;6.40;99.90
33815;DHT22;20121;51.910;8.406;2023-04-25T03:48:08;6.40;99.90
33815;DHT22;20121;51.910;8.406;2023-04-25T03:50:34;6.40;99.90
33815;DHT22;20121;51.910;8.406;2023-04-25T03:53:00;6.40;99.90
33815;DHT22;20121;51.910;8.406;2023-04-25T03:55:26;6.50;99.90
33815;DHT22;20121;51.910;8.406;2023-04-25T03:57:52;6.50;99.90
33815;DHT22;20121;51.910;8.406;2023-04-25T04:00:17;6.40;99.90
33815;DHT22;20121;51.910;8.406;2023-04-25T04:02:43;6.30;99.90
33815;DHT22;20121;51.910;8.406;2023-04-25T04:05:08;6.30;99.90
33815;DHT22;20121;51.910;8.406;2023-04-25T04:07:34;6.40;99.90
33815;DHT22;20121;51.910;8.406;2023-04-25T04:10:06;6.40;99.90
33815;DHT22;20121;51.910;8.406;2023-04-25T04:12:32;6.50;99.90
33815;DHT22;20121;51.910;8.406;2023-04-25T04:14:57;6.40;99.90
33815;DHT22;20121;51.910;8.406;2023-04-25T04:17:23;6.30;99.90
33815;DHT22;20121;51.910;8.406;2023-04-25T04:19:48;6.30;99.90
33815;DHT22;20121;51.910;8.406;2023-04-25T04:22:14;6.30;99.90
33815;DHT22;20121;51.910;8.406;2023-04-25T04:24:40;6.30;99.90
33815;DHT22;20121;51.910;8.406;2023-04-25T04:27:09;7.40;99.90
33815;DHT22;20121;51.910;8.406;2023-04-25T04:29:35;6.30;99.90
33815;DHT22;20121;51.910;8.406;2023-04-25T04:32:02;6.30;99.90
33815;DHT22;20121;51.910;8.406;2023-04-25T04:34:28;6.30;99.90
33815;DHT22;20121;51.910;8.406;2023-04-25T04:39:20;6.40;99.90
33815;DHT22;20121;51.910;8.406;2023-04-25T04:41:46;6.30;99.90
33815;DHT22;20121;51.910;8.406;2023-04-25T04:44:12;6.30;99.90
33815;DHT22;20121;51.910;8.406;2023-04-25T04:46:37;6.30;99.90
33815;DHT22;20121;51.910;8.406;2023-04-25T04:49:10;6.30;99.90
33815;DHT22;20121;51.910;8.406;2023-04-25T04:51:36;6.40;99.90
33815;DHT22;20121;51.910;8.406;2023-04-25T04:54:03;6.20;99.90
33815;DHT22;20121;51.910;8.406;2023-04-25T04:56:29;6.50;99.90
33815;DHT22;20121;51.910;8.406;2023-04-25T04:58:56;6.30;99.90
33815;DHT22;20121;51.910;8.406;2023-04-25T05:01:22;6.30;99.90
33815;DHT22;20121;51.910;8.406;2023-04-25T05:03:48;6.30;99.90
33815;DHT22;20121;51.910;8.406;2023-04-25T05:06:14;6.20;99.90
33815;DHT22;20121;51.910;8.406;2023-04-25T05:08:39;6.30;99.90
33815;DHT22;20121;51.910;8.406;2023-04-25T05:11:05;6.30;99.90
33815;DHT22;20121;51.910;8.406;2023-04-25T05:13:31;6.30;99.90
33815;DHT22;20121;51.910;8.406;2023-04-25T05:15:57;6.40;99.90
33815;DHT22;20121;51.910;8.406;2023-04-25T05:18:22;6.30;99.90
33815;DHT22;20121;51.910;8.406;2023-04-25T05:20:48;6.30;99.90
33815;DHT22;20121;51.910;8.406;2023-04-25T05:23:13;6.30;99.90
33815;DHT22;20121;51.910;8.406;2023-04-25T05:25:39;6.50;99.90
33815;DHT22;20121;51.910;8.406;2023-04-25T05:28:05;6.30;99.90
33815;DHT22;20121;51.910;8.406;2023-04-25T05:30:31;6.40;99.90
33815;DHT22;20121;51.910;8.406;2023-04-25T05:32:56;6.30;99.90
33815;DHT22;20121;51.910;8.406;2023-04-25T05:35:22;6.40;99.90
33815;DHT22;20121;51.910;8.406;2023-04-25T05:37:47;6.30;99.90
33815;DHT22;20121;51.910;8.406;2023-04-25T05:40:13;6.40;99.90
33815;DHT22;20121;51.910;8.406;2023-04-25T05:42:39;6.50;99.90
33815;DHT22;20121;51.910;8.406;2023-04-25T05:45:05;6.50;99.90
33815;DHT22;20121;51.910;8.406;2023-04-25T05:47:30;6.70;99.90
33815;DHT22;20121;51.910;8.406;2023-04-25T05:49:56;6.60;99.90
33815;DHT22;20121;51.910;8.406;2023-04-25T05:52:22;6.60;99.90
33815;DHT22;20121;51.910;8.406;2023-04-25T05:54:48;6.90;99.90
33815;DHT22;20121;51.910;8.406;2023-04-25T05:57:24;6.70;99.90
33815;DHT22;20121;51.910;8.406;2023-04-25T05:59:50;6.60;99.90
33815;DHT22;20121;51.910;8.406;2023-04-25T06:02:16;6.70;99.90
33815;DHT22;20121;51.910;8.406;2023-04-25T06:04:42;6.80;99.90
33815;DHT22;20121;51.910;8.406;2023-04-25T06:07:08;7.00;99.90
33815;DHT22;20121;51.910;8.406;2023-04-25T06:09:34;6.90;99.90
33815;DHT22;20121;51.910;8.406;2023-04-25T06:12:00;7.00;99.90
33815;DHT22;20121;51.910;8.406;2023-04-25T06:14:26;7.00;99.90
33815;DHT22;20121;51.910;8.406;2023-04-25T06:16:52;7.20;99.90
33815;DHT22;20121;51.910;8.406;2023-04-25T06:19:17;7.20;99.90
33815;DHT22;20121;51.910;8.406;2023-04-25T06:21:44;7.50;99.90
33815;DHT22;20121;51.910;8.406;2023-04-25T06:24:10;7.20;99.90
33815;DHT22;20121;51.910;8.406;2023-04-25T06:26:35;7.40;99.90
33815;DHT22;20121;51.910;8.406;2023-04-25T06:29:01;7.40;99.90
33815;DHT22;20121;51.910;8.406;2023-04-25T06:31:27;7.40;99.90
33815;DHT22;20121;51.910;8.406;2023-04-25T06:33:54;7.50;99.90
33815;DHT22;20121;51.910;8.406;2023-04-25T06:36:20;7.50;99.90
33815;DHT22;20121;51.910;8.406;2023-04-25T06:38:50;7.80;99.90
33815;DHT22;20121;51.910;8.406;2023-04-25T06:41:17;7.40;99.90
33815;DHT22;20121;51.910;8.406;2023-04-25T06:43:42;7.50;99.90
33815;DHT22;20121;51.910;8.406;2023-04-25T06:46:08;7.60;99.90
33815;DHT22;20121;51.910;8.406;2023-04-25T06:48:34;7.60;99.90
33815;DHT22;20121;51.910;8.406;2023-04-25T06:50:59;7.60;99.90
33815;DHT22;20121;51.910;8.406;2023-04-25T06:53:25;7.60;99.90
33815;DHT22;20121;51.910;8.406;2023-04-25T06:58:17;7.70;99.90
33815;DHT22;20121;51.910;8.406;2023-04-25T07:00:43;7.80;99.90
33815;DHT22;20121;51.910;8.406;2023-04-25T07:03:08;7.80;99.90
33815;DHT22;20121;51.910;8.406;2023-04-25T07:05:35;7.80;99.90
33815;DHT22;20121;51.910;8.406;2023-04-25T07:08:00;8.00;99.90
33815;DHT22;20121;51.910;8.406;2023-04-25T07:10:26;7.90;99.90
33815;DHT22;20121;51.910;8.406;2023-04-25T07:12:52;8.00;99.90
33815;DHT22;20121;51.910;8.406;2023-04-25T07:15:17;8.40;99.90
33815;DHT22;20121;51.910;8.406;2023-04-25T07:17:43;8.00;99.90
33815;DHT22;20121;51.910;8.406;2023-04-25T07:20:09;8.10;99.90
33815;DHT22;20121;51.910;8.406;2023-04-25T07:22:35;8.30;99.90
33815;DHT22;20121;51.910;8.406;2023-04-25T07:25:01;8.20;99.90
33815;DHT22;20121;51.910;8.406;2023-04-25T07:27:27;8.30;99.90
33815;DHT22;20121;51.910;8.406;2023-04-25T07:29:53;8.20;99.90
33815;DHT22;20121;51.910;8.406;2023-04-25T07:32:19;8.60;99.90
33815;DHT22;20121;51.910;8.406;2023-04-25T07:34:45;8.30;99.90
33815;DHT22;20121;51.910;8.406;2023-04-25T07:37:10;8.60;99.90
33815;DHT22;20121;51.910;8.406;2023-04-25T07:39:36;8.50;99.90
33815;DHT22;20121;51.910;8.406;2023-04-25T07:42:03;8.70;99.90
33815;DHT22;20121;51.910;8.406;2023-04-25T07:44:29;8.80;99.90
33815;DHT22;20121;51.910;8.406;2023-04-25T07:46:56;8.80;99.90
33815;DHT22;20121;51.910;8.406;2023-04-25T07:49:21;8.80;99.90
33815;DHT22;20121;51.910;8.406;2023-04-25T07:51:47;8.90;99.90
33815;DHT22;20121;51.910;8.406;2023-04-25T07:54:14;8.80;99.90
33815;DHT22;20121;51.910;8.406;2023-04-25T07:56:40;9.00;99.90
33815;DHT22;20121;51.910;8.406;2023-04-25T08:01:33;9.10;99.90
33815;DHT22;20121;51.910;8.406;2023-04-25T08:03:59;9.20;99.90
33815;DHT22;20121;51.910;8.406;2023-04-25T08:06:24;9.10;99.90
33815;DHT22;20121;51.910;8.406;2023-04-25T08:08:51;9.20;99.90
33815;DHT22;20121;51.910;8.406;2023-04-25T08:11:16;11.20;99.90
33815;DHT22;20121;51.910;8.406;2023-04-25T08:13:42;9.30;99.90
33815;DHT22;20121;51.910;8.406;2023-04-25T08:16:08;9.40;99.90
33815;DHT22;20121;51.910;8.406;2023-04-25T08:18:33;9.50;99.90
33815;DHT22;20121;51.910;8.406;2023-04-25T08:20:59;9.50;99.90
33815;DHT22;20121;51.910;8.406;2023-04-25T08:23:25;9.50;99.90
33815;DHT22;20121;51.910;8.406;2023-04-25T08:25:50;9.60;99.90
33815;DHT22;20121;51.910;8.406;2023-04-25T08:30:42;9.80;99.90
33815;DHT22;20121;51.910;8.406;2023-04-25T08:33:08;9.90;99.90
33815;DHT22;20121;51.910;8.406;2023-04-25T08:35:33;10.20;99.90
33815;DHT22;20121;51.910;8.406;2023-04-25T08:37:59;10.40;99.90
33815;DHT22;20121;51.910;8.406;2023-04-25T08:40:27;10.40;99.90
33815;DHT22;20121;51.910;8.406;2023-04-25T08:42:57;11.10;99.90
33815;DHT22;20121;51.910;8.406;2023-04-25T08:45:26;10.70;99.90
33815;DHT22;20121;51.910;8.406;2023-04-25T08:47:54;11.30;99.90
33815;DHT22;20121;51.910;8.406;2023-04-25T08:50:23;10.60;99.90
33815;DHT22;20121;51.910;8.406;2023-04-25T08:52:50;10.50;99.90
33815;DHT22;20121;51.910;8.406;2023-04-25T08:55:18;10.40;99.90
33815;DHT22;20121;51.910;8.406;2023-04-25T08:57:44;10.40;99.90
33815;DHT22;20121;51.910;8.406;2023-04-25T09:00:11;10.50;99.90
33815;DHT22;20121;51.910;8.406;2023-04-25T09:02:40;10.60;99.90
33815;DHT22;20121;51.910;8.406;2023-04-25T09:05:07;10.90;99.90
33815;DHT22;20121;51.910;8.406;2023-04-25T09:07:35;10.70;99.90
33815;DHT22;20121;51.910;8.406;2023-04-25T09:10:01;10.80;99.90
33815;DHT22;20121;51.910;8.406;2023-04-25T09:12:29;11.10;99.90
33815;DHT22;20121;51.910;8.406;2023-04-25T09:15:07;11.40;99.90
33815;DHT22;20121;51.910;8.406;2023-04-25T09:17:32;11.80;99.90
33815;DHT22;20121;51.910;8.406;2023-04-25T09:20:08;12.10;99.90
33815;DHT22;20121;51.910;8.406;2023-04-25T09:22:35;12.20;99.90
33815;DHT22;20121;51.910;8.406;2023-04-25T09:25:11;12.40;99.90
33815;DHT22;20121;51.910;8.406;2023-04-25T09:27:52;12.20;99.90
33815;DHT22;20121;51.910;8.406;2023-04-25T09:30:29;12.30;99.90
33815;DHT22;20121;51.910;8.406;2023-04-25T09:33:10;12.00;99.90
33815;DHT22;20121;51.910;8.406;2023-04-25T09:35:40;12.10;99.90
33815;DHT22;20121;51.910;8.406;2023-04-25T09:38:11;12.30;99.90
33815;DHT22;20121;51.910;8.406;2023-04-25T09:40:45;12.50;99.90
33815;DHT22;20121;51.910;8.406;2023-04-25T09:43:29;11.90;99.90
33815;DHT22;20121;51.910;8.406;2023-04-25T09:45:55;12.40;99.90
33815;DHT22;20121;51.910;8.406;2023-04-25T09:48:26;11.90;99.90
33815;DHT22;20121;51.910;8.406;2023-04-25T09:53:35;11.60;99.90
33815;DHT22;20121;51.910;8.406;2023-04-25T09:56:05;11.80;99.90
33815;DHT22;20121;51.910;8.406;2023-04-25T09:58:36;11.80;99.90
33815;DHT22;20121;51.910;8.406;2023-04-25T10:01:04;12.50;99.90
33815;DHT22;20121;51.910;8.406;2023-04-25T10:03:31;11.50;99.90
33815;DHT22;20121;51.910;8.406;2023-04-25T10:06:01;11.30;99.90
33815;DHT22;20121;51.910;8.406;2023-04-25T10:08:37;11.20;99.90
33815;DHT22;20121;51.910;8.406;2023-04-25T10:11:05;11.10;99.90
33815;DHT22;20121;51.910;8.406;2023-04-25T10:13:32;11.40;99.90
33815;DHT22;20121;51.910;8.406;2023-04-25T10:15:59;11.30;99.90
33815;DHT22;20121;51.910;8.406;2023-04-25T10:18:29;11.40;99.90
33815;DHT22;20121;51.910;8.406;2023-04-25T10:21:04;10.80;99.90
33815;DHT22;20121;51.910;8.406;2023-04-25T10:23:30;10.80;99.90
33815;DHT22;20121;51.910;8.406;2023-04-25T10:25:57;10.70;99.90
33815;DHT22;20121;51.910;8.406;2023-04-25T10:28:23;10.70;99.90
33815;DHT22;20121;51.910;8.406;2023-04-25T10:31:00;10.70;99.90
33815;DHT22;20121;51.910;8.406;2023-04-25T10:33:36;10.80;99.90
33815;DHT22;20121;51.910;8.406;2023-04-25T10:36:21;11.10;99.90
33815;DHT22;20121;51.910;8.406;2023-04-25T10:38:49;11.00;99.90
33815;DHT22;20121;51.910;8.406;2023-04-25T10:41:20;10.90;99.90
33815;DHT22;20121;51.910;8.406;2023-04-25T10:43:47;11.60;99.90
33815;DHT22;20121;51.910;8.406;2023-04-25T10:48:58;11.90;99.90
33815;DHT22;20121;51.910;8.406;2023-04-25T10:51:31;12.50;99.90
33815;DHT22;20121;51.910;8.406;2023-04-25T11:01:46;14.10;99.90
33815;DHT22;20121;51.910;8.406;2023-04-25T11:09:49;13.90;99.90
33815;DHT22;20121;51.910;8.406;2023-04-25T11:12:15;13.70;99.90
33815;DHT22;20121;51.910;8.406;2023-04-25T11:14:42;13.70;99.90
33815;DHT22;20121;51.910;8.406;2023-04-25T11:19:34;13.30;99.90
33815;DHT22;20121;51.910;8.406;2023-04-25T11:22:01;13.50;99.90
33815;DHT22;20121;51.910;8.406;2023-04-25T11:24:31;12.70;99.90
33815;DHT22;20121;51.910;8.406;2023-04-25T11:27:01;12.80;99.90
33815;DHT22;20121;51.910;8.406;2023-04-25T11:29:28;12.50;99.90
33815;DHT22;20121;51.910;8.406;2023-04-25T11:31:54;12.30;99.90
33815;DHT22;20121;51.910;8.406;2023-04-25T11:34:24;12.40;99.90
33815;DHT22;20121;51.910;8.406;2023-04-25T11:36:51;12.60;99.90
33815;DHT22;20121;51.910;8.406;2023-04-25T11:39:20;12.40;99.90
33815;DHT22;20121;51.910;8.406;2023-04-25T11:41:46;12.70;99.90
33815;DHT22;20121;51.910;8.406;2023-04-25T11:44:15;12.60;99.90
33815;DHT22;20121;51.910;8.406;2023-04-25T11:46:42;12.60;99.90
33815;DHT22;20121;51.910;8.406;2023-04-25T11:49:07;12.70;99.90
33815;DHT22;20121;51.910;8.406;2023-04-25T11:51:40;13.00;99.90
33815;DHT22;20121;51.910;8.406;2023-04-25T11:54:06;13.40;99.90
33815;DHT22;20121;51.910;8.406;2023-04-25T11:56:32;13.60;99.90
33815;DHT22;20121;51.910;8.406;2023-04-25T11:59:03;13.90;99.90
33815;DHT22;20121;51.910;8.406;2023-04-25T12:01:30;13.90;99.90
33815;DHT22;20121;51.910;8.406;2023-04-25T12:04:15;14.10;99.90
33815;DHT22;20121;51.910;8.406;2023-04-25T12:06:42;14.10;99.90
33815;DHT22;20121;51.910;8.406;2023-04-25T12:09:10;13.60;99.90
33815;DHT22;20121;51.910;8.406;2023-04-25T12:11:46;13.70;99.90
33815;DHT22;20121;51.910;8.406;2023-04-25T12:14:24;13.60;99.90
33815;DHT22;20121;51.910;8.406;2023-04-25T12:16:50;14.00;99.90
33815;DHT22;20121;51.910;8.406;2023-04-25T12:19:18;14.20;99.90
33815;DHT22;20121;51.910;8.406;2023-04-25T12:21:44;14.50;99.90
33815;DHT22;20121;51.910;8.406;2023-04-25T12:24:15;14.50;99.90
33815;DHT22;20121;51.910;8.406;2023-04-25T12:27:04;14.30;99.90
33815;DHT22;20121;51.910;8.406;2023-04-25T12:29:32;14.30;99.90
33815;DHT22;20121;51.910;8.406;2023-04-25T12:31:58;14.40;99.90
33815;DHT22;20121;51.910;8.406;2023-04-25T12:34:24;14.00;99.90
33815;DHT22;20121;51.910;8.406;2023-04-25T12:36:52;13.90;99.90
33815;DHT22;20121;51.910;8.406;2023-04-25T12:39:18;13.70;99.90
33815;DHT22;20121;51.910;8.406;2023-04-25T12:41:48;13.80;99.90
33815;DHT22;20121;51.910;8.406;2023-04-25T12:44:14;13.70;99.90
33815;DHT22;20121;51.910;8.406;2023-04-25T12:46:40;13.70;99.90
33815;DHT22;20121;51.910;8.406;2023-04-25T12:49:08;14.30;99.90
33815;DHT22;20121;51.910;8.406;2023-04-25T12:51:37;14.00;99.90
33815;DHT22;20121;51.910;8.406;2023-04-25T12:54:04;14.10;99.90
33815;DHT22;20121;51.910;8.406;2023-04-25T12:56:31;14.30;99.90
33815;DHT22;20121;51.910;8.406;2023-04-25T12:58:57;14.40;99.90
33815;DHT22;20121;51.910;8.406;2023-04-25T13:01:24;14.20;99.90
33815;DHT22;20121;51.910;8.406;2023-04-25T13:03:50;15.20;99.90
33815;DHT22;20121;51.910;8.406;2023-04-25T13:06:16;14.50;99.90
33815;DHT22;20121;51.910;8.406;2023-04-25T13:08:42;14.80;99.90
33815;DHT22;20121;51.910;8.406;2023-04-25T13:11:08;14.80;99.90
33815;DHT22;20121;51.910;8.406;2023-04-25T13:16:03;15.00;88.00
33815;DHT22;20121;51.910;8.406;2023-04-25T13:18:29;15.60;99.90
33815;DHT22;20121;51.910;8.406;2023-04-25T13:20:56;16.30;90.80
33815;DHT22;20121;51.910;8.406;2023-04-25T13:23:23;15.80;92.20
33815;DHT22;20121;51.910;8.406;2023-04-25T13:25:49;15.70;92.70
33815;DHT22;20121;51.910;8.406;2023-04-25T13:28:14;15.70;91.90
33815;DHT22;20121;51.910;8.406;2023-04-25T13:30:41;15.10;90.80
33815;DHT22;20121;51.910;8.406;2023-04-25T13:33:07;14.80;92.50
33815;DHT22;20121;51.910;8.406;2023-04-25T13:35:34;14.00;93.30
33815;DHT22;20121;51.910;8.406;2023-04-25T13:38:00;13.60;94.10
33815;DHT22;20121;51.910;8.406;2023-04-25T13:40:26;13.00;94.50
33815;DHT22;20121;51.910;8.406;2023-04-25T13:42:52;12.60;94.90
33815;DHT22;20121;51.910;8.406;2023-04-25T13:45:19;12.20;94.50
33815;DHT22;20121;51.910;8.406;2023-04-25T13:47:45;12.10;94.40
33815;DHT22;20121;51.910;8.406;2023-04-25T13:50:11;11.70;93.70
33815;DHT22;20121;51.910;8.406;2023-04-25T13:52:36;11.70;94.20
33815;DHT22;20121;51.910;8.406;2023-04-25T13:55:02;12.30;94.00
33815;DHT22;20121;51.910;8.406;2023-04-25T13:57:30;12.10;94.10
33815;DHT22;20121;51.910;8.406;2023-04-25T13:59:56;13.20;93.70
33815;DHT22;20121;51.910;8.406;2023-04-25T14:02:21;12.80;92.80
33815;DHT22;20121;51.910;8.406;2023-04-25T14:04:47;13.60;93.60
33815;DHT22;20121;51.910;8.406;2023-04-25T14:07:13;15.00;93.00
33815;DHT22;20121;51.910;8.406;2023-04-25T14:09:41;12.50;91.50
33815;DHT22;20121;51.910;8.406;2023-04-25T14:12:07;12.10;91.50
33815;DHT22;20121;51.910;8.406;2023-04-25T14:14:33;11.90;91.90
33815;DHT22;20121;51.910;8.406;2023-04-25T14:16:58;11.60;92.10
33815;DHT22;20121;51.910;8.406;2023-04-25T14:19:24;12.10;93.10
33815;DHT22;20121;51.910;8.406;2023-04-25T14:21:50;12.00;92.70
33815;DHT22;20121;51.910;8.406;2023-04-25T14:24:15;11.60;92.40
33815;DHT22;20121;51.910;8.406;2023-04-25T14:26:41;11.00;99.90
33815;DHT22;20121;51.910;8.406;2023-04-25T14:29:09;11.00;92.00
33815;DHT22;20121;51.910;8.406;2023-04-25T14:31:37;10.90;92.20
33815;DHT22;20121;51.910;8.406;2023-04-25T14:34:04;10.90;92.50
33815;DHT22;20121;51.910;8.406;2023-04-25T14:36:30;10.70;94.20
33815;DHT22;20121;51.910;8.406;2023-04-25T14:38:56;10.60;97.30
33815;DHT22;20121;51.910;8.406;2023-04-25T14:41:22;9.60;99.90
33815;DHT22;20121;51.910;8.406;2023-04-25T14:43:48;10.30;99.90
33815;DHT22;20121;51.910;8.406;2023-04-25T14:46:14;10.10;99.90
33815;DHT22;20121;51.910;8.406;2023-04-25T14:48:40;9.80;99.90
33815;DHT22;20121;51.910;8.406;2023-04-25T14:51:06;9.70;99.90
33815;DHT22;20121;51.910;8.406;2023-04-25T14:53:32;9.80;99.90
33815;DHT22;20121;51.910;8.406;2023-04-25T14:55:58;9.40;99.90
33815;DHT22;20121;51.910;8.406;2023-04-25T14:58:23;9.30;99.90
33815;DHT22;20121;51.910;8.406;2023-04-25T15:00:49;9.30;99.90
33815;DHT22;20121;51.910;8.406;2023-04-25T15:03:16;9.50;99.90
33815;DHT22;20121;51.910;8.406;2023-04-25T15:05:43;9.30;99.90
33815;DHT22;20121;51.910;8.406;2023-04-25T15:08:09;9.30;99.90
33815;DHT22;20121;51.910;8.406;2023-04-25T15:10:35;10.20;99.90
33815;DHT22;20121;51.910;8.406;2023-04-25T15:13:01;9.50;99.90
33815;DHT22;20121;51.910;8.406;2023-04-25T15:15:28;9.70;99.90
33815;DHT22;20121;51.910;8.406;2023-04-25T15:17:54;9.70;99.90
33815;DHT22;20121;51.910;8.406;2023-04-25T15:20:21;9.60;99.90
33815;DHT22;20121;51.910;8.406;2023-04-25T15:22:46;9.90;99.90
33815;DHT22;20121;51.910;8.406;2023-04-25T15:25:15;9.90;99.90
33815;DHT22;20121;51.910;8.406;2023-04-25T15:27:44;10.00;99.90
33815;DHT22;20121;51.910;8.406;2023-04-25T15:30:14;10.10;99.90
33815;DHT22;20121;51.910;8.406;2023-04-25T15:32:44;10.40;99.90
33815;DHT22;20121;51.910;8.406;2023-04-25T15:35:10;10.40;99.90
33815;DHT22;20121;51.910;8.406;2023-04-25T15:37:37;10.40;99.90
33815;DHT22;20121;51.910;8.406;2023-04-25T15:40:08;10.30;99.90
33815;DHT22;20121;51.910;8.406;2023-04-25T15:42:45;10.40;99.90
33815;DHT22;20121;51.910;8.406;2023-04-25T15:45:19;10.90;99.90
33815;DHT22;20121;51.910;8.406;2023-04-25T15:47:46;10.10;99.20
33815;DHT22;20121;51.910;8.406;2023-04-25T15:50:12;10.50;99.80
33815;DHT22;20121;51.910;8.406;2023-04-25T15:52:39;9.70;99.90
33815;DHT22;20121;51.910;8.406;2023-04-25T15:55:05;9.60;99.90
33815;DHT22;20121;51.910;8.406;2023-04-25T15:57:34;9.60;99.90
33815;DHT22;20121;51.910;8.406;2023-04-25T16:00:00;9.40;99.90
33815;DHT22;20121;51.910;8.406;2023-04-25T16:02:26;9.30;99.90
33815;DHT22;20121;51.910;8.406;2023-04-25T16:04:52;9.30;99.90
33815;DHT22;20121;51.910;8.406;2023-04-25T16:07:18;9.10;99.90
33815;DHT22;20121;51.910;8.406;2023-04-25T16:09:43;9.60;99.90
33815;DHT22;20121;51.910;8.406;2023-04-25T16:12:10;8.90;99.90
33815;DHT22;20121;51.910;8.406;2023-04-25T16:14:36;8.80;99.90
33815;DHT22;20121;51.910;8.406;2023-04-25T16:17:02;8.80;99.90
33815;DHT22;20121;51.910;8.406;2023-04-25T16:19:27;8.70;99.90